Time;durP1;ratioP1;P1;durP2;ratioP2;P2;SDS_P1;SDS_P2;PMS_P1;PMS_P2;Temp;Humidity;BMP_temperature;BMP_pressure;BME280_temperature;BME280_humidity;BME280_pressure;Samples;Min_cycle;Max_cycle;Signal;HPM_P1;HPM_P2
2023/07/12 00:00:53;;;;;;;8.38;7.78;;;;;;;;;;5045820;28;20320;-63
2023/07/12 00:03:21;;;;;;;9.65;8.48;;;;;;;;;;5045525;28;20211;-64
2023/07/12 00:05:48;;;;;;;7.90;7.03;;;;;;;;;;5044002;28;20293;-64
2023/07/12 00:08:18;;;;;;;8.50;7.68;;;;;;;;;;5046257;28;20273;-64
2023/07/12 00:10:44;;;;;;;8.98;7.97;;;;;;;;;;5045715;28;20214;-63
2023/07/12 00:13:11;;;;;;;8.90;8.20;;;;;;;;;;5045909;28;20303;-63
2023/07/12 00:15:37;;;;;;;8.48;7.82;;;;;;;;;;5045250;28;20238;-62
2023/07/12 00:18:06;;;;;;;8.73;7.90;;;;;;;;;;5043840;28;20892;-63
2023/07/12 00:20:35;;;;;;;9.18;7.85;;;;;;;;;;5044505;28;20735;-61
2023/07/12 00:23:02;;;;;;;10.05;8.60;;;;;;;;;;5046403;28;20269;-62
2023/07/12 00:25:29;;;;;;;8.40;7.82;;;;;;;;;;5046203;28;21012;-63
2023/07/12 00:27:56;;;;;;;10.80;8.80;;;;;;;;;;5046257;28;20222;-63
2023/07/12 00:30:23;;;;;;;8.80;7.93;;;;;;;;;;5043993;28;20238;-64
2023/07/12 00:32:50;;;;;;;9.95;9.05;;;;;;;;;;5045166;28;20234;-62
2023/07/12 00:35:18;;;;;;;12.38;8.38;;;;;;;;;;5050199;28;20320;-62
2023/07/12 00:37:46;;;;;;;11.05;7.75;;;;;;;;;;5048914;28;20211;-64
2023/07/12 00:40:19;;;;;;;10.13;9.13;;;;;;;;;;5049058;28;20284;-60
2023/07/12 00:42:46;;;;;;;10.50;9.55;;;;;;;;;;5048523;28;20699;-63
2023/07/12 00:45:13;;;;;;;9.52;8.68;;;;;;;;;;5048089;28;20277;-62
2023/07/12 00:47:41;;;;;;;10.40;9.45;;;;;;;;;;5048249;28;20198;-63
2023/07/12 00:50:15;;;;;;;9.48;8.60;;;;;;;;;;5047428;28;20238;-64
2023/07/12 00:52:42;;;;;;;10.48;9.18;;;;;;;;;;5048454;28;20223;-63
2023/07/12 00:55:23;;;;;;;10.35;9.45;;;;;;;;;;5047860;28;20223;-62
2023/07/12 00:57:51;;;;;;;11.13;9.90;;;;;;;;;;5049152;28;20747;-63
2023/07/12 01:00:18;;;;;;;11.25;9.27;;;;;;;;;;5049965;28;20322;-62
2023/07/12 01:02:46;;;;;;;10.23;9.23;;;;;;;;;;5050495;28;20235;-64
2023/07/12 01:05:13;;;;;;;9.90;8.98;;;;;;;;;;5049438;28;20202;-64
2023/07/12 01:07:40;;;;;;;10.05;9.05;;;;;;;;;;5049656;28;20207;-63
2023/07/12 01:10:08;;;;;;;9.35;8.38;;;;;;;;;;5049544;28;20762;-63
2023/07/12 01:12:34;;;;;;;9.05;8.45;;;;;;;;;;5049860;28;20199;-62
2023/07/12 01:15:02;;;;;;;10.23;9.23;;;;;;;;;;5050590;28;20230;-62
2023/07/12 01:17:29;;;;;;;9.75;8.85;;;;;;;;;;5048730;28;20874;-64
2023/07/12 01:19:55;;;;;;;9.52;8.57;;;;;;;;;;5049415;28;20257;-63
2023/07/12 01:22:23;;;;;;;11.98;8.50;;;;;;;;;;5048916;28;20267;-62
2023/07/12 01:24:50;;;;;;;9.88;9.18;;;;;;;;;;5049756;28;20203;-63
2023/07/12 01:27:17;;;;;;;10.18;9.00;;;;;;;;;;5048015;28;20269;-63
2023/07/12 01:29:44;;;;;;;10.65;9.32;;;;;;;;;;5049809;28;20191;-63
2023/07/12 01:32:10;;;;;;;13.25;8.75;;;;;;;;;;5048785;28;20230;-64
2023/07/12 01:34:37;;;;;;;10.00;9.10;;;;;;;;;;5049657;28;20646;-63
2023/07/12 01:37:04;;;;;;;9.00;8.10;;;;;;;;;;5049016;28;20206;-62
2023/07/12 01:39:32;;;;;;;10.00;9.13;;;;;;;;;;5049838;28;20203;-63
2023/07/12 01:41:58;;;;;;;9.60;8.73;;;;;;;;;;5049197;28;20644;-63
2023/07/12 01:44:25;;;;;;;11.68;8.35;;;;;;;;;;5049012;28;20203;-63
2023/07/12 01:46:51;;;;;;;9.85;9.05;;;;;;;;;;5048592;28;20253;-63
2023/07/12 01:49:18;;;;;;;9.45;8.75;;;;;;;;;;5049259;28;20630;-64
2023/07/12 01:51:44;;;;;;;10.05;9.18;;;;;;;;;;5048913;28;20218;-64
2023/07/12 01:54:11;;;;;;;9.55;8.77;;;;;;;;;;5049364;28;20345;-63
2023/07/12 01:56:38;;;;;;;12.73;9.07;;;;;;;;;;5048379;28;20265;-63
2023/07/12 01:59:05;;;;;;;9.60;8.63;;;;;;;;;;5048839;28;20739;-63
2023/07/12 02:01:31;;;;;;;13.57;10.20;;;;;;;;;;5048015;28;20223;-63
2023/07/12 02:03:58;;;;;;;9.27;8.45;;;;;;;;;;5049059;28;20207;-63
2023/07/12 02:06:24;;;;;;;9.57;8.60;;;;;;;;;;5048462;28;20280;-64
2023/07/12 02:08:51;;;;;;;11.40;8.73;;;;;;;;;;5048774;28;20210;-63
2023/07/12 02:11:17;;;;;;;12.00;9.18;;;;;;;;;;5047869;28;20261;-64
2023/07/12 02:13:45;;;;;;;13.30;8.80;;;;;;;;;;5049098;28;20215;-64
2023/07/12 02:16:11;;;;;;;9.85;8.45;;;;;;;;;;5047284;28;20249;-63
2023/07/12 02:18:38;;;;;;;10.63;9.15;;;;;;;;;;5047593;28;20195;-62
2023/07/12 02:21:04;;;;;;;10.70;9.50;;;;;;;;;;5048424;28;20715;-63
2023/07/12 02:23:31;;;;;;;10.07;9.25;;;;;;;;;;5046867;28;20276;-64
2023/07/12 02:25:57;;;;;;;9.57;8.85;;;;;;;;;;5047672;28;20230;-63
2023/07/12 02:28:23;;;;;;;10.10;9.27;;;;;;;;;;5047849;28;20300;-62
2023/07/12 02:30:51;;;;;;;10.38;9.55;;;;;;;;;;5048063;28;20195;-64
2023/07/12 02:33:18;;;;;;;9.95;9.25;;;;;;;;;;5048160;28;20433;-64
2023/07/12 02:35:44;;;;;;;11.65;8.70;;;;;;;;;;5046779;28;20262;-63
2023/07/12 02:38:10;;;;;;;15.55;9.85;;;;;;;;;;5046045;28;20300;-62
2023/07/12 02:40:37;;;;;;;12.27;9.43;;;;;;;;;;5046796;28;20253;-62
2023/07/12 02:43:03;;;;;;;10.35;9.57;;;;;;;;;;5045846;28;20317;-63
2023/07/12 02:45:30;;;;;;;10.55;9.55;;;;;;;;;;5045952;28;20601;-62
2023/07/12 02:47:58;;;;;;;10.63;9.18;;;;;;;;;;5046204;28;20693;-63
2023/07/12 02:50:24;;;;;;;10.38;9.38;;;;;;;;;;5046531;28;20260;-63
2023/07/12 02:52:51;;;;;;;11.20;10.02;;;;;;;;;;5047665;28;20223;-63
2023/07/12 02:55:17;;;;;;;12.70;9.45;;;;;;;;;;5047204;28;20246;-62
2023/07/12 02:57:43;;;;;;;10.45;9.45;;;;;;;;;;5047523;28;20260;-63
2023/07/12 03:00:11;;;;;;;9.02;8.32;;;;;;;;;;5047764;28;20253;-62
2023/07/12 03:02:38;;;;;;;10.80;9.70;;;;;;;;;;5048449;28;20300;-63
2023/07/12 03:05:06;;;;;;;10.90;9.70;;;;;;;;;;5048255;28;20257;-64
2023/07/12 03:07:34;;;;;;;9.90;9.10;;;;;;;;;;5047356;28;20633;-64
2023/07/12 03:10:01;;;;;;;11.43;10.05;;;;;;;;;;5047636;28;20703;-63
2023/07/12 03:12:28;;;;;;;10.80;9.77;;;;;;;;;;5048063;28;20471;-63
2023/07/12 03:14:54;;;;;;;11.23;9.23;;;;;;;;;;5048061;28;20314;-62
2023/07/12 03:17:21;;;;;;;10.60;9.48;;;;;;;;;;5047121;28;20331;-63
2023/07/12 03:19:47;;;;;;;11.52;9.10;;;;;;;;;;5047641;28;20199;-63
2023/07/12 03:22:15;;;;;;;10.82;9.85;;;;;;;;;;5046614;28;20732;-62
2023/07/12 03:24:41;;;;;;;11.32;9.45;;;;;;;;;;5047874;28;20215;-64
2023/07/12 03:27:08;;;;;;;11.52;9.98;;;;;;;;;;5047120;28;20268;-60
2023/07/12 03:29:35;;;;;;;10.70;9.50;;;;;;;;;;5047709;28;20195;-63
2023/07/12 03:32:01;;;;;;;13.43;10.10;;;;;;;;;;5046812;28;20269;-65
2023/07/12 03:34:31;;;;;;;9.93;9.02;;;;;;;;;;5047073;28;20231;-63
2023/07/12 03:36:57;;;;;;;11.05;9.52;;;;;;;;;;5047179;28;20199;-61
2023/07/12 03:39:25;;;;;;;12.30;9.50;;;;;;;;;;5047136;28;20199;-62
2023/07/12 03:41:51;;;;;;;11.35;8.82;;;;;;;;;;5046948;28;20199;-62
2023/07/12 03:44:18;;;;;;;10.25;9.38;;;;;;;;;;5047232;28;20679;-64
2023/07/12 03:46:44;;;;;;;11.10;10.00;;;;;;;;;;5047011;28;20287;-64
2023/07/12 03:49:11;;;;;;;9.65;8.75;;;;;;;;;;5045365;28;20209;-62
2023/07/12 03:51:37;;;;;;;9.18;8.40;;;;;;;;;;5045884;28;20222;-63
2023/07/12 03:54:04;;;;;;;11.35;9.25;;;;;;;;;;5047212;28;20226;-64
2023/07/12 03:56:31;;;;;;;9.90;8.40;;;;;;;;;;5046378;28;20284;-63
2023/07/12 03:58:58;;;;;;;18.08;8.93;;;;;;;;;;5046869;28;20597;-64
2023/07/12 04:01:24;;;;;;;12.60;8.48;;;;;;;;;;5046319;28;20203;-63
2023/07/12 04:03:51;;;;;;;12.95;9.45;;;;;;;;;;5046591;28;20589;-62
2023/07/12 04:06:17;;;;;;;11.90;9.30;;;;;;;;;;5046331;28;20266;-63
2023/07/12 04:08:44;;;;;;;11.82;10.30;;;;;;;;;;5046288;28;20249;-64
2023/07/12 04:11:19;;;;;;;11.95;9.75;;;;;;;;;;5046399;28;20199;-64
2023/07/12 04:13:46;;;;;;;15.32;11.18;;;;;;;;;;5046298;28;20210;-64
2023/07/12 04:16:15;;;;;;;36.13;25.05;;;;;;;;;;5044813;28;20763;-62
2023/07/12 04:18:42;;;;;;;20.27;13.85;;;;;;;;;;5046479;28;20195;-63
2023/07/12 04:21:08;;;;;;;24.10;17.40;;;;;;;;;;5046045;28;20222;-64
2023/07/12 04:23:35;;;;;;;24.88;16.55;;;;;;;;;;5045605;28;20209;-63
2023/07/12 04:26:03;;;;;;;23.45;14.77;;;;;;;;;;5045909;28;20203;-64
2023/07/12 04:28:30;;;;;;;18.98;11.13;;;;;;;;;;5046285;28;20615;-64
2023/07/12 04:31:02;;;;;;;11.45;10.45;;;;;;;;;;5046546;28;20689;-62
2023/07/12 04:33:28;;;;;;;13.68;10.40;;;;;;;;;;5045660;28;20700;-65
2023/07/12 04:35:55;;;;;;;10.48;9.60;;;;;;;;;;5045901;28;20769;-64
2023/07/12 04:38:21;;;;;;;12.00;10.07;;;;;;;;;;5045784;28;20207;-65
2023/07/12 04:40:52;;;;;;;19.63;10.30;;;;;;;;;;5046755;28;20265;-62
2023/07/12 04:43:19;;;;;;;11.13;10.10;;;;;;;;;;5045711;28;20329;-63
2023/07/12 04:45:45;;;;;;;12.63;9.52;;;;;;;;;;5045238;28;20210;-63
2023/07/12 04:48:13;;;;;;;10.95;9.40;;;;;;;;;;5044026;28;20625;-63
2023/07/12 04:50:40;;;;;;;14.98;10.00;;;;;;;;;;5046378;28;20199;-62
2023/07/12 04:53:06;;;;;;;17.55;12.10;;;;;;;;;;5045743;28;20250;-63
2023/07/12 04:55:33;;;;;;;30.38;24.70;;;;;;;;;;5035618;28;20277;-64
2023/07/12 04:58:00;;;;;;;17.30;13.40;;;;;;;;;;5045486;28;20207;-64
2023/07/12 05:00:27;;;;;;;27.20;20.98;;;;;;;;;;5046423;28;20195;-64
2023/07/12 05:02:54;;;;;;;20.13;15.23;;;;;;;;;;5046008;28;21129;-65
2023/07/12 05:05:22;;;;;;;12.98;11.27;;;;;;;;;;5046146;28;20260;-64
2023/07/12 05:07:48;;;;;;;11.82;10.48;;;;;;;;;;5045500;28;20261;-64
2023/07/12 05:10:15;;;;;;;12.63;11.43;;;;;;;;;;5045972;28;20195;-61
2023/07/12 05:12:42;;;;;;;11.80;10.45;;;;;;;;;;5045853;28;20234;-64
2023/07/12 05:15:09;;;;;;;17.33;12.07;;;;;;;;;;5045934;28;20226;-64
2023/07/12 05:17:35;;;;;;;16.60;12.48;;;;;;;;;;5045311;28;20241;-64
2023/07/12 05:20:03;;;;;;;17.55;11.45;;;;;;;;;;5048005;28;20191;-65
2023/07/12 05:22:30;;;;;;;11.77;10.73;;;;;;;;;;5049406;28;20278;-63
2023/07/12 05:24:57;;;;;;;13.98;10.77;;;;;;;;;;5050187;28;20230;-62
2023/07/12 05:27:24;;;;;;;13.70;11.02;;;;;;;;;;5048475;28;20281;-63
2023/07/12 05:29:50;;;;;;;14.80;11.93;;;;;;;;;;5049732;28;20230;-64
2023/07/12 05:32:17;;;;;;;19.13;11.68;;;;;;;;;;5048692;28;20226;-63
2023/07/12 05:34:43;;;;;;;15.25;12.32;;;;;;;;;;5049976;28;20203;-64
2023/07/12 05:37:10;;;;;;;20.80;12.07;;;;;;;;;;5048668;28;20225;-62
2023/07/12 05:39:38;;;;;;;20.42;13.52;;;;;;;;;;5049265;28;20234;-64
2023/07/12 05:42:05;;;;;;;17.58;11.93;;;;;;;;;;5048914;28;20697;-64
2023/07/12 05:44:32;;;;;;;13.68;10.25;;;;;;;;;;5049623;28;20287;-64
2023/07/12 05:46:58;;;;;;;16.52;11.73;;;;;;;;;;5048823;28;20241;-64
2023/07/12 05:49:25;;;;;;;16.65;10.98;;;;;;;;;;5049254;28;20261;-64
2023/07/12 05:51:52;;;;;;;14.98;10.73;;;;;;;;;;5045140;28;20237;-64
2023/07/12 05:54:18;;;;;;;13.55;10.88;;;;;;;;;;5049250;28;20211;-64
2023/07/12 05:56:46;;;;;;;13.25;9.85;;;;;;;;;;5048211;28;20765;-63
2023/07/12 05:59:13;;;;;;;19.92;11.02;;;;;;;;;;5049172;28;20626;-65
2023/07/12 06:01:39;;;;;;;13.90;10.70;;;;;;;;;;5048762;28;20195;-63
2023/07/12 06:04:10;;;;;;;11.00;9.85;;;;;;;;;;5049440;28;20203;-64
2023/07/12 06:06:37;;;;;;;10.43;9.52;;;;;;;;;;5048941;28;20203;-64
2023/07/12 06:09:03;;;;;;;10.23;9.23;;;;;;;;;;5049045;28;20303;-63
2023/07/12 06:11:30;;;;;;;13.20;8.73;;;;;;;;;;5048899;28;20213;-64
2023/07/12 06:13:58;;;;;;;9.50;8.73;;;;;;;;;;5048201;28;20304;-63
2023/07/12 06:16:24;;;;;;;9.82;8.80;;;;;;;;;;5048902;28;20314;-62
2023/07/12 06:18:51;;;;;;;12.48;9.93;;;;;;;;;;5045152;28;20206;-63
2023/07/12 06:21:17;;;;;;;11.65;9.35;;;;;;;;;;5047016;28;20226;-64
2023/07/12 06:23:43;;;;;;;14.27;8.23;;;;;;;;;;5047669;28;20256;-63
2023/07/12 06:26:10;;;;;;;8.95;8.07;;;;;;;;;;5047710;28;20684;-64
2023/07/12 06:28:36;;;;;;;9.82;8.43;;;;;;;;;;5048077;28;20802;-64
2023/07/12 06:31:05;;;;;;;8.75;7.90;;;;;;;;;;5047236;28;20235;-62
2023/07/12 06:33:32;;;;;;;12.80;8.25;;;;;;;;;;5048584;28;20209;-64
2023/07/12 06:35:58;;;;;;;9.23;8.05;;;;;;;;;;5048978;28;20252;-64
2023/07/12 06:38:24;;;;;;;10.23;8.45;;;;;;;;;;5046636;28;20234;-64
2023/07/12 06:40:51;;;;;;;9.80;8.82;;;;;;;;;;5046748;28;20242;-64
2023/07/12 06:43:17;;;;;;;13.00;8.35;;;;;;;;;;5046407;28;20226;-65
2023/07/12 06:45:44;;;;;;;10.02;8.43;;;;;;;;;;5047062;28;20202;-64
2023/07/12 06:48:12;;;;;;;11.25;8.55;;;;;;;;;;5046415;28;20221;-64
2023/07/12 06:50:39;;;;;;;9.93;9.05;;;;;;;;;;5046345;28;20284;-64
2023/07/12 06:53:06;;;;;;;9.65;8.25;;;;;;;;;;5047039;28;20685;-64
2023/07/12 06:55:32;;;;;;;9.13;8.32;;;;;;;;;;5048020;28;20222;-64
2023/07/12 06:57:59;;;;;;;8.50;8.00;;;;;;;;;;5047421;28;20686;-64
2023/07/12 07:00:25;;;;;;;11.82;8.75;;;;;;;;;;5048068;28;20210;-64
2023/07/12 07:02:52;;;;;;;8.63;7.80;;;;;;;;;;5048027;28;20942;-65
2023/07/12 07:05:20;;;;;;;10.63;8.23;;;;;;;;;;5048068;28;20203;-65
2023/07/12 07:07:46;;;;;;;14.32;9.10;;;;;;;50.77;nan;95447.09;5047675;28;20324;-64
2023/07/12 07:10:13;;;;;;;10.65;8.77;;;;;;;51.03;nan;95461.84;5048304;28;20198;-65
2023/07/12 07:12:39;;;;;;;10.05;9.38;;;;;;;;;;5047182;28;20203;-66
2023/07/12 07:15:07;;;;;;;11.10;10.07;;;;;;;51.42;nan;95468.78;5047762;28;20288;-64
2023/07/12 07:17:34;;;;;;;11.20;8.48;;;;;;;51.71;nan;95470.41;5046820;28;20218;-65
2023/07/12 07:20:00;;;;;;;9.60;8.80;;;;;;;51.52;nan;95468.56;5046814;28;20222;-66
2023/07/12 07:22:28;;;;;;;16.25;8.45;;;;;;;;;;5047321;28;20202;-66
2023/07/12 07:24:55;;;;;;;10.82;8.50;;;;;;;52.44;nan;95466.72;5047770;28;20675;-65
2023/07/12 07:27:22;;;;;;;9.00;8.20;;;;;;;51.88;nan;95465.16;5046782;28;20712;-65
2023/07/12 07:29:50;;;;;;;10.98;9.45;;;;;;;;;;5047428;28;20688;-63
2023/07/12 07:32:17;;;;;;;218.70;198.98;;;;;;;52.37;nan;95458.19;5046960;28;20202;-66
2023/07/12 07:34:44;;;;;;;13.63;10.00;;;;;;;51.96;nan;95450.94;5047083;28;20198;-63
2023/07/12 07:37:10;;;;;;;10.30;9.48;;;;;;;51.71;nan;95454.16;5046760;28;20229;-62
2023/07/12 07:39:38;;;;;;;10.20;9.25;;;;;;;;;;5047324;28;20198;-64
2023/07/12 07:42:05;;;;;;;10.82;9.82;;;;;;;51.88;nan;95449.72;5046825;28;20237;-64
2023/07/12 07:44:32;;;;;;;12.02;10.25;;;;;;;52.06;nan;95450.69;5047205;28;20202;-63
2023/07/12 07:46:59;;;;;;;13.63;9.65;;;;;;;51.96;nan;95457.16;5046604;28;20208;-62
2023/07/12 07:49:25;;;;;;;12.50;10.13;;;;;;;51.99;nan;95461.16;5047195;28;20567;-62
2023/07/12 07:51:54;;;;;;;15.95;14.18;;;;;;;;;;5046064;28;20221;-64
2023/07/12 07:54:20;;;;;;;10.98;9.52;;;;;;;51.67;nan;95443.91;5047456;28;20217;-63
2023/07/12 07:56:51;;;;;;;10.48;8.82;;;;;;;51.92;nan;95455.31;5046732;28;20222;-63
2023/07/12 07:59:17;;;;;;;18.92;10.63;;;;;;;51.61;nan;95450.53;5046313;28;20630;-63
2023/07/12 08:01:44;;;;;;;16.40;14.85;;;;;;;51.34;nan;95445.06;5046179;28;20264;-64
2023/07/12 08:04:11;;;;;;;15.55;13.00;;;;;;;51.32;nan;95447.28;5046726;28;20198;-62
2023/07/12 08:06:38;;;;;;;10.27;9.32;;;;;;;51.31;nan;95440.25;5046200;28;20194;-61
2023/07/12 08:09:06;;;;;;;10.13;8.77;;;;;;;51.50;nan;95443.66;5045222;28;20252;-61
2023/07/12 08:11:33;;;;;;;14.85;9.60;;;;;;;51.46;nan;95450.81;5045865;28;20198;-64
2023/07/12 08:14:01;;;;;;;14.25;12.25;;;;;;;;;;5046245;28;20283;-64
2023/07/12 08:16:29;;;;;;;22.98;20.67;;;;;;;;;;5044379;28;20643;-63
2023/07/12 08:18:57;;;;;;;21.38;15.77;;;;;;;;;;5043736;28;20206;-63
2023/07/12 08:21:23;;;;;;;23.17;20.77;;;;;;;52.05;nan;95453.72;5042458;28;20666;-63
2023/07/12 08:23:50;;;;;;;23.95;20.40;;;;;;;51.97;nan;95463.38;5046484;28;20280;-63
2023/07/12 08:26:19;;;;;;;20.80;18.85;;;;;;;;;;5045418;28;20206;-63
2023/07/12 08:28:46;;;;;;;19.25;17.38;;;;;;;52.48;nan;95446.78;5045969;28;20198;-64
2023/07/12 08:31:15;;;;;;;17.52;15.43;;;;;;;52.34;nan;95451.47;5045696;28;20765;-64
2023/07/12 08:33:43;;;;;;;15.55;14.25;;;;;;;;;;5045820;28;20757;-62
2023/07/12 08:36:10;;;;;;;19.27;12.27;;;;;;;;;;5044460;28;20322;-61
2023/07/12 08:38:36;;;;;;;20.20;12.73;;;;;;;;;;5044868;28;20746;-62
2023/07/12 08:41:06;;;;;;;12.23;10.88;;;;;;;;;;5044537;28;20230;-63
2023/07/12 08:43:34;;;;;;;11.30;9.77;;;;;;;52.51;nan;95450.78;5044608;28;20553;-63
2023/07/12 08:46:04;;;;;;;12.32;11.23;;;;;;;;;;5044135;28;20730;-62
2023/07/12 08:48:32;;;;;;;12.35;11.00;;;;;;;;;;5044176;28;20709;-62
2023/07/12 08:51:00;;;;;;;15.52;9.38;;;;;;;52.35;nan;95448.44;5044929;28;20210;-63
2023/07/12 08:53:29;;;;;;;11.15;10.27;;;;;;;;;;5045187;28;20294;-63
2023/07/12 08:55:57;;;;;;;13.02;10.13;;;;;;;;;;5049466;28;20234;-62
2023/07/12 08:58:24;;;;;;;11.57;9.55;;;;;;;;;;5049743;28;20203;-63
2023/07/12 09:00:59;;;;;;;10.38;9.38;;;;;;;51.32;nan;95398.53;5049659;28;20689;-61
2023/07/12 09:03:26;;;;;;;10.73;9.70;;;;;;;;;;5049257;28;20206;-62
2023/07/12 09:05:54;;;;;;;33.85;16.65;;;;;;;;;;5048327;28;20676;-64
2023/07/12 09:08:23;;;;;;;15.45;11.63;;;;;;;;;;5049809;28;20649;-63
2023/07/12 09:10:50;;;;;;;35.45;29.95;;;;;;;;;;5048808;28;20194;-64
2023/07/12 09:13:18;;;;;;;13.35;9.40;;;;;;;;;;5049580;28;20195;-62
2023/07/12 09:15:45;;;;;;;28.80;25.83;;;;;;;;;;5049196;28;20246;-63
2023/07/12 09:18:21;;;;;;;15.55;11.77;;;;;;;;;;5050113;28;20226;-63
2023/07/12 09:20:50;;;;;;;15.80;14.10;;;;;;;;;;5049018;28;20265;-63
2023/07/12 09:23:18;;;;;;;14.63;11.18;;;;;;;;;;5049321;28;20664;-63
2023/07/12 09:25:47;;;;;;;21.45;19.23;;;;;;;;;;5049478;28;20281;-64
2023/07/12 09:28:14;;;;;;;19.88;18.05;;;;;;;;;;5049374;28;20202;-63
2023/07/12 09:30:41;;;;;;;15.20;13.63;;;;;;;;;;5049300;28;20285;-62
2023/07/12 09:33:16;;;;;;;14.02;12.77;;;;;;;;;;5049754;28;20195;-63
2023/07/12 09:35:45;;;;;;;19.95;13.55;;;;;;;;;;5049892;28;20236;-65
2023/07/12 09:38:12;;;;;;;10.80;9.27;;;;;;;;;;5049611;28;20226;-63
2023/07/12 09:40:41;;;;;;;18.88;9.60;;;;;;;;;;5049467;28;20201;-64
2023/07/12 09:43:15;;;;;;;13.98;11.55;;;;;;;;;;5049418;28;20269;-64
2023/07/12 09:45:43;;;;;;;16.63;10.35;;;;;;;;;;5048809;28;20709;-66
2023/07/12 09:48:10;;;;;;;17.45;11.07;;;;;;;;;;5049470;28;20245;-64
2023/07/12 09:50:39;;;;;;;11.45;10.25;;;;;;;;;;5049967;28;20280;-65
2023/07/12 09:53:09;;;;;;;12.50;10.50;;;;;;;;;;5049079;28;20715;-65
2023/07/12 09:55:40;;;;;;;10.85;9.75;;;;;;;;;;5049545;28;20226;-65
2023/07/12 09:58:13;;;;;;;13.50;9.93;;;;;;;;;;5048941;28;20214;-64
2023/07/12 10:00:42;;;;;;;9.63;8.38;;;;;;;;;;5049105;28;20660;-64
2023/07/12 10:03:16;;;;;;;12.43;8.80;;;;;;;;;;5049098;28;20226;-63
2023/07/12 10:05:45;;;;;;;10.05;7.68;;;;;;;;;;5048425;28;20222;-61
2023/07/12 10:08:13;;;;;;;15.25;7.75;;;;;;;;;;5048802;28;20231;-62
2023/07/12 10:10:42;;;;;;;8.77;7.30;;;;;;;;;;5049003;28;20257;-63
2023/07/12 10:13:27;;;;;;;9.40;7.80;;;;;;;34.64;nan;95279.06;5049119;28;20199;-63
2023/07/12 10:15:54;;;;;;;8.38;7.57;;;;;;;34.47;nan;95283.81;5048090;28;20278;-62
2023/07/12 10:18:25;;;;;;;11.18;7.35;;;;;;;34.21;nan;95281.78;5046590;28;20318;-63
2023/07/12 10:20:53;;;;;;;8.57;7.60;;;;;;;34.05;nan;95277.59;5047733;28;20293;-63
2023/07/12 10:23:23;;;;;;;9.30;7.28;;;;;;;33.84;nan;95282.91;5048258;28;20242;-63
2023/07/12 10:25:57;;;;;;;8.30;7.57;;;;;;;33.83;nan;95289.19;5048430;28;20257;-63
2023/07/12 10:28:28;;;;;;;11.73;8.00;;;;;;;33.69;nan;95280.28;5048886;28;20626;-63
2023/07/12 10:30:57;;;;;;;7.13;6.53;;;;;;;33.59;nan;95285.06;5048756;28;20203;-63
2023/07/12 10:33:28;;;;;;;7.80;6.20;;;;;;;33.41;nan;95282.84;5048504;28;20213;-61
2023/07/12 10:35:57;;;;;;;8.90;8.10;;;;;;;33.25;nan;95279.59;5045798;28;20272;-64
2023/07/12 10:38:25;;;;;;;7.57;6.82;;;;;;;33.10;nan;95277.81;5047699;28;20223;-63
2023/07/12 10:40:55;;;;;;;8.52;7.75;;;;;;;33.13;nan;95284.53;5047907;28;20234;-62
2023/07/12 10:43:31;;;;;;;7.93;6.32;;;;;;;33.23;nan;95269.25;5047474;28;20265;-63
2023/07/12 10:46:04;;;;;;;7.55;6.82;;;;;;;33.23;nan;95269.25;5048737;28;20301;-63
2023/07/12 10:48:31;;;;;;;7.10;6.50;;;;;;;33.23;nan;95273.69;5048016;28;20321;-63
2023/07/12 10:51:19;;;;;;;7.43;6.72;;;;;;;33.17;nan;95269.16;5048570;28;20233;-64
2023/07/12 10:53:50;;;;;;;7.82;7.18;;;;;;;33.15;nan;95265.91;5048140;28;20221;-63
2023/07/12 10:56:19;;;;;;;7.60;6.82;;;;;;;32.86;nan;95241.28;5045941;28;20360;-64
2023/07/12 10:58:50;;;;;;;9.18;5.82;;;;;;;33.04;nan;95254.84;5046334;28;20312;-63
2023/07/12 11:01:36;;;;;;;7.82;6.78;;;;;;;32.87;nan;95255.25;5046022;28;20296;-63
2023/07/12 11:04:08;;;;;;;7.25;6.60;;;;;;;32.77;nan;95261.59;5045968;28;20258;-63
2023/07/12 11:06:35;;;;;;;7.10;6.60;;;;;;;32.65;nan;95254.34;5046091;28;20703;-61
2023/07/12 11:09:08;;;;;;;6.63;6.07;;;;;;;32.42;nan;95260.47;5045963;28;20812;-62
2023/07/12 11:11:43;;;;;;;6.28;5.70;;;;;;;32.45;nan;95254.88;5047555;28;20206;-63
2023/07/12 11:14:25;;;;;;;7.28;6.75;;;;;;;32.37;nan;95254.97;5047393;28;20285;-63
2023/07/12 11:17:11;;;;;;;7.03;6.47;;;;;;;32.27;nan;95251.78;5047037;28;20229;-64
2023/07/12 11:19:50;;;;;;;9.10;6.82;;;;;;;32.26;nan;95246.69;5047998;28;20199;-63
2023/07/12 11:22:18;;;;;;;7.40;6.70;;;;;;;32.24;nan;95244.25;5046883;28;20310;-63
2023/07/12 11:25:09;;;;;;;7.82;6.15;;;;;;;32.25;nan;95232.72;5047709;28;20203;-62
2023/07/12 11:27:42;;;;;;;7.40;6.72;;;;;;;32.19;nan;95237.84;5047246;28;20297;-63
2023/07/12 11:30:23;;;;;;;7.55;6.85;;;;;;;32.11;nan;95241.41;5047494;28;20207;-64
2023/07/12 11:32:53;;;;;;;6.45;5.95;;;;;;;32.06;nan;95235.84;5047527;28;20227;-62
2023/07/12 11:35:25;;;;;;;6.53;6.03;;;;;;;32.15;nan;95224.28;5046848;28;20648;-64
2023/07/12 11:37:57;;;;;;;6.55;5.95;;;;;;;32.41;nan;95227.31;5047429;28;20309;-64
2023/07/12 11:40:26;;;;;;;6.45;5.95;;;;;;;32.42;nan;95222.84;5047229;28;20563;-64
2023/07/12 11:42:53;;;;;;;6.55;5.95;;;;;;;32.30;nan;95211.97;5047650;28;20195;-64
2023/07/12 11:45:22;;;;;;;5.72;5.30;;;;;;;32.30;nan;95209.34;5046746;28;20195;-63
2023/07/12 11:47:52;;;;;;;6.85;6.10;;;;;;;32.31;nan;95205.72;5047218;28;20199;-61
2023/07/12 11:50:23;;;;;;;6.38;5.97;;;;;;;32.34;nan;95199.28;5047417;28;20276;-61
2023/07/12 11:52:51;;;;;;;7.30;6.65;;;;;;;32.20;nan;95198.22;5046434;28;20747;-62
2023/07/12 11:55:21;;;;;;;6.57;6.00;;;;;;;32.21;nan;95207.78;5047209;28;20273;-62
2023/07/12 11:57:49;;;;;;;7.28;5.68;;;;;;;32.22;nan;95211.22;5046405;28;20778;-63
2023/07/12 12:00:18;;;;;;;8.93;6.78;;;;;;;32.21;nan;95205.16;5046749;28;20677;-62
2023/07/12 12:02:50;;;;;;;6.43;6.03;;;;;;;32.13;nan;95199.97;5046438;28;20241;-63
2023/07/12 12:05:20;;;;;;;8.25;5.93;;;;;;;31.99;nan;95166.56;5047051;28;20199;-63
2023/07/12 12:07:49;;;;;;;6.65;6.05;;;;;;;32.08;nan;95182.09;5046927;28;20199;-63
2023/07/12 12:10:22;;;;;;;6.95;6.55;;;;;;;32.06;nan;95180.63;5047241;28;20253;-63
2023/07/12 12:12:48;;;;;;;6.88;6.38;;;;;;;32.00;nan;95178.72;5046439;28;20215;-62
2023/07/12 12:15:21;;;;;;;7.03;6.35;;;;;;;31.89;nan;95164.22;5046924;28;20288;-63
2023/07/12 12:17:51;;;;;;;7.80;7.18;;;;;;;31.86;nan;95158.50;5046381;28;20305;-62
2023/07/12 12:20:20;;;;;;;7.55;6.93;;;;;;;32.00;nan;95160.31;5046845;28;20203;-61
2023/07/12 12:22:53;;;;;;;6.95;6.50;;;;;;;32.21;nan;95160.44;5046677;28;20223;-63
2023/07/12 12:25:22;;;;;;;6.28;5.68;;;;;;;32.12;nan;95169.41;5046502;28;20301;-62
2023/07/12 12:27:49;;;;;;;7.25;6.80;;;;;;;32.16;nan;95168.06;5046304;28;20325;-63
2023/07/12 12:30:22;;;;;;;7.07;6.40;;;;;;;32.32;nan;95154.75;5053090;28;20195;-63
2023/07/12 12:33:02;;;;;;;7.78;7.07;;;;;;;32.61;nan;95163.59;5053662;28;20202;-63
2023/07/12 12:35:29;;;;;;;7.68;6.50;;;;;;;32.70;nan;95155.41;5051584;28;20202;-61
2023/07/12 12:37:57;;;;;;;9.05;6.70;;;;;;;32.71;nan;95150.94;5052322;28;20310;-62
2023/07/12 12:40:25;;;;;;;7.05;6.38;;;;;;;32.61;nan;95153.88;5053114;28;20195;-63
2023/07/12 12:42:57;;;;;;;6.43;5.95;;;;;;;32.49;nan;95154.53;5052075;28;20731;-62
2023/07/12 12:45:28;;;;;;;7.43;6.72;;;;;;;32.45;nan;95157.53;5052888;28;20207;-64
2023/07/12 12:47:54;;;;;;;6.72;6.22;;;;;;;32.50;nan;95161.44;5053431;28;20248;-63
2023/07/12 12:50:23;;;;;;;6.60;6.10;;;;;;;32.54;nan;95157.44;5053342;28;20207;-63
2023/07/12 12:52:50;;;;;;;10.88;6.25;;;;;;;32.49;nan;95162.41;5051208;28;20262;-62
2023/07/12 12:55:16;;;;;;;7.75;7.13;;;;;;;32.51;nan;95157.78;5050539;28;20746;-63
2023/07/12 12:57:43;;;;;;;8.52;6.20;;;;;;;32.52;nan;95154.16;5050996;28;20250;-62
2023/07/12 13:00:17;;;;;;;7.32;6.63;;;;;;;32.57;nan;95157.06;5051787;28;20203;-62
2023/07/12 13:02:44;;;;;;;7.07;6.68;;;;;;;32.46;nan;95156.53;5051350;28;20669;-62
2023/07/12 13:05:11;;;;;;;8.90;6.07;;;;;;;32.38;nan;95154.00;5051484;28;20256;-62
2023/07/12 13:07:42;;;;;;;6.60;6.15;;;;;;;32.19;nan;95154.53;5049507;28;20207;-63
2023/07/12 13:10:15;;;;;;;8.95;6.60;;;;;;;32.21;nan;95152.56;5053378;28;20299;-63
2023/07/12 13:12:42;;;;;;;8.55;6.82;;;;;;;32.34;nan;95155.38;5052273;28;20226;-63
2023/07/12 13:15:14;;;;;;;8.20;6.88;;;;;;;32.39;nan;95152.19;5052912;28;20602;-64
2023/07/12 13:17:41;;;;;;;7.38;6.82;;;;;;;32.35;nan;95159.63;5052352;28;20284;-62
2023/07/12 13:20:11;;;;;;;7.78;6.82;;;;;;;32.47;nan;95158.16;5052968;28;20207;-64
2023/07/12 13:22:40;;;;;;;9.70;6.97;;;;;;;32.61;nan;95151.25;5052508;28;20256;-64
2023/07/12 13:25:09;;;;;;;6.97;6.55;;;;;;;32.71;nan;95158.84;5053270;28;20234;-64
2023/07/12 13:27:37;;;;;;;8.27;6.93;;;;;;;32.81;nan;95148.88;5052520;28;20238;-63
2023/07/12 13:30:06;;;;;;;7.35;6.35;;;;;;;32.81;nan;95148.88;5053246;28;20284;-62
2023/07/12 13:32:33;;;;;;;8.77;6.63;;;;;;;32.89;nan;95151.41;5053023;28;20195;-62